METAR Data
IDs: Format: Raw Decoded Include TAF

Data at: 1755 UTC 26 Sep 2021

EHBK 261725Z AUTO 20007KT 170V230 9999 NSC 19/15 Q1015 NOSIG